Time;durP1;ratioP1;P1;durP2;ratioP2;P2;SDS_P1;SDS_P2;PMS_P1;PMS_P2;Temp;Humidity;BMP_temperature;BMP_pressure;BME280_temperature;BME280_humidity;BME280_pressure;Samples;Min_cycle;Max_cycle;Signal;HPM_P1;HPM_P2
2021/05/06 00:34:19;;;;;;;3.97;2.50;;;5.70;99.90;;;;;;5049234;28;20055;-73
2021/05/06 00:36:47;;;;;;;5.03;2.47;;;5.80;99.90;;;;;;5046484;28;20055;-72
2021/05/06 00:39:17;;;;;;;4.40;2.97;;;5.80;99.90;;;;;;5044206;28;20152;-73
2021/05/06 00:42:03;;;;;;;4.18;2.70;;;5.70;99.90;;;;;;5041567;28;20052;-73
2021/05/06 00:55:46;;;;;;;5.22;3.03;;;5.80;99.90;;;;;;5039605;28;20138;-73
2021/05/06 01:01:04;;;;;;;4.65;2.47;;;5.70;99.90;;;;;;5039461;28;20051;-73
2021/05/06 01:03:43;;;;;;;5.13;3.00;;;5.70;99.90;;;;;;5049197;28;20102;-72
2021/05/06 01:06:19;;;;;;;4.88;3.10;;;5.70;99.90;;;;;;5038564;28;20085;-73
2021/05/06 01:09:05;;;;;;;5.30;2.97;;;5.70;99.90;;;;;;5038695;28;20055;-73
2021/05/06 01:11:38;;;;;;;5.32;3.35;;;5.70;99.90;;;;;;5037906;28;20124;-73
2021/05/06 01:14:08;;;;;;;5.63;3.17;;;5.70;99.90;;;;;;5042249;28;20116;-73
2021/05/06 01:16:36;;;;;;;6.00;3.22;;;5.70;99.90;;;;;;5035090;28;20488;-73
2021/05/06 01:19:03;;;;;;;6.45;3.45;;;5.70;99.90;;;;;;5039607;28;20060;-73
2021/05/06 01:21:29;;;;;;;6.13;3.60;;;5.70;99.90;;;;;;5039676;28;20152;-73
2021/05/06 01:23:56;;;;;;;5.00;3.20;;;5.70;99.90;;;;;;5042467;28;20047;-72
2021/05/06 01:26:39;;;;;;;4.85;3.28;;;5.70;99.90;;;;;;5041771;28;20042;-73
2021/05/06 01:29:19;;;;;;;5.00;3.70;;;5.70;99.90;;;;;;5045728;28;20091;-73
2021/05/06 01:31:52;;;;;;;7.35;3.88;;;5.70;99.90;;;;;;5038938;28;20522;-73
2021/05/06 01:34:21;;;;;;;6.32;3.75;;;5.70;99.90;;;;;;5047590;28;20123;-73
2021/05/06 01:37:01;;;;;;;7.10;3.90;;;5.60;99.90;;;;;;5039093;28;20048;-73
2021/05/06 01:43:08;;;;;;;4.57;3.25;;;5.70;99.90;;;;;;5041816;28;20045;-73
2021/05/06 01:45:17;;;;;;;5.75;3.85;;;5.70;99.90;;;;;;5032563;28;20051;-73
2021/05/06 01:58:40;;;;;;;6.30;4.47;;;5.50;99.90;;;;;;5040153;28;20067;-73
2021/05/06 02:01:07;;;;;;;5.07;4.05;;;5.50;99.90;;;;;;5036538;28;20082;-73
2021/05/06 02:03:34;;;;;;;5.63;4.05;;;5.40;99.90;;;;;;5045888;28;20469;-72
2021/05/06 02:06:00;;;;;;;5.20;3.90;;;5.40;99.90;;;;;;5041668;28;20045;-73
2021/05/06 02:08:28;;;;;;;5.45;3.92;;;5.40;99.90;;;;;;5038406;28;20045;-74
2021/05/06 02:11:00;;;;;;;6.32;3.58;;;5.40;99.90;;;;;;5047960;28;20045;-72
2021/05/06 02:13:27;;;;;;;5.07;3.65;;;5.30;99.90;;;;;;5036668;28;20384;-72
2021/05/06 02:16:00;;;;;;;6.78;3.95;;;5.30;99.90;;;;;;5036974;28;20051;-73
2021/05/06 02:18:28;;;;;;;18.85;4.35;;;5.20;99.90;;;;;;5040317;28;20053;-73
2021/05/06 02:20:55;;;;;;;15.03;3.80;;;5.20;99.90;;;;;;5037894;28;20080;-74
2021/05/06 02:23:21;;;;;;;6.90;3.90;;;5.10;99.90;;;;;;5043724;28;20045;-73
2021/05/06 02:25:47;;;;;;;23.98;3.95;;;5.00;99.90;;;;;;5044110;28;20044;-72
2021/05/06 02:28:14;;;;;;;13.25;3.20;;;4.90;99.90;;;;;;5039639;28;20148;-73
2021/05/06 02:30:47;;;;;;;7.30;3.70;;;4.90;99.90;;;;;;5046087;28;20103;-72
2021/05/06 02:33:13;;;;;;;32.95;3.80;;;4.80;99.90;;;;;;5043390;28;20077;-72
2021/05/06 02:35:40;;;;;;;75.30;4.22;;;4.80;99.90;;;;;;5039010;28;20443;-73
2021/05/06 02:38:07;;;;;;;63.40;4.30;;;4.70;99.90;;;;;;5046369;28;20503;-72
2021/05/06 02:40:34;;;;;;;50.17;4.25;;;4.60;99.90;;;;;;5040587;28;20041;-73
2021/05/06 02:43:00;;;;;;;47.13;4.10;;;4.60;99.90;;;;;;5043095;28;20055;-73
2021/05/06 02:45:27;;;;;;;22.42;5.00;;;4.50;99.90;;;;;;5042357;28;20414;-73
2021/05/06 02:47:53;;;;;;;33.83;4.78;;;4.50;99.90;;;;;;5046216;28;20053;-72
2021/05/06 02:50:22;;;;;;;24.27;3.50;;;4.40;99.90;;;;;;5045927;28;20071;-73
2021/05/06 02:53:09;;;;;;;64.10;4.10;;;4.40;99.90;;;;;;5048152;28;20072;-73
2021/05/06 02:58:10;;;;;;;46.78;3.65;;;4.30;99.90;;;;;;5047138;28;20068;-72
2021/05/06 03:03:21;;;;;;;5.13;3.88;;;4.20;99.90;;;;;;5051263;28;20180;-72
2021/05/06 03:05:55;;;;;;;9.52;4.00;;;4.10;99.90;;;;;;5043259;28;20041;-73
2021/05/06 03:08:27;;;;;;;5.18;3.67;;;4.10;99.90;;;;;;5048568;28;20068;-72
2021/05/06 03:24:50;;;;;;;43.22;3.50;;;3.90;99.90;;;;;;5043605;28;20049;-73
2021/05/06 03:27:17;;;;;;;33.08;3.38;;;3.90;99.90;;;;;;5040407;28;20147;-73
2021/05/06 03:30:03;;;;;;;32.10;3.05;;;3.90;99.90;;;;;;5044508;28;20094;-73
2021/05/06 03:32:55;;;;;;;30.42;3.03;;;3.80;99.90;;;;;;5041747;28;20128;-73
2021/05/06 03:46:51;;;;;;;20.80;4.10;;;3.70;99.90;;;;;;5033097;28;20455;-73
2021/05/06 04:18:39;;;;;;;34.50;6.10;;;3.20;99.90;;;;;;5011908;28;20059;-73
2021/05/06 04:26:48;;;;;;;34.45;5.68;;;3.20;99.90;;;;;;5035253;28;20053;-73
2021/05/06 04:37:33;;;;;;;16.60;5.22;;;3.10;99.90;;;;;;5040117;28;19928;-73
2021/05/06 04:40:12;;;;;;;6.50;4.55;;;3.10;99.90;;;;;;5042463;28;20108;-73
2021/05/06 04:43:31;;;;;;;9.75;4.97;;;3.10;99.90;;;;;;5052113;28;20152;-73
2021/05/06 05:04:30;;;;;;;26.23;4.75;;;3.50;99.90;;;;;;5040518;28;20633;-73
2021/05/06 05:20:14;;;;;;;16.10;5.07;;;3.80;99.90;;;;;;5036957;28;20059;-73
2021/05/06 05:27:56;;;;;;;14.75;5.45;;;3.90;99.90;;;;;;5036088;28;20817;-73
2021/05/06 05:30:25;;;;;;;21.25;5.15;;;4.00;99.90;;;;;;5042144;28;20075;-73
2021/05/06 05:33:10;;;;;;;22.83;6.05;;;4.10;99.90;;;;;;5040971;28;20800;-73
2021/05/06 05:35:40;;;;;;;30.52;7.70;;;4.20;99.90;;;;;;5029167;28;20132;-73
2021/05/06 05:40:51;;;;;;;23.65;6.88;;;4.40;99.90;;;;;;5027868;28;20180;-73
2021/05/06 05:46:41;;;;;;;35.08;7.32;;;4.60;99.90;;;;;;5042292;28;20498;-73
2021/05/06 05:57:00;;;;;;;26.17;7.15;;;5.00;99.90;;;;;;5036147;28;20059;-73
2021/05/06 05:59:27;;;;;;;16.88;8.23;;;5.10;99.90;;;;;;5046276;28;20055;-73
2021/05/06 06:01:53;;;;;;;20.35;7.25;;;5.20;99.90;;;;;;5034542;28;20057;-73
2021/05/06 06:04:19;;;;;;;16.55;8.02;;;5.30;99.90;;;;;;5035858;28;20063;-74
2021/05/06 06:06:46;;;;;;;19.83;7.97;;;5.30;99.90;;;;;;5040013;28;20073;-73
2021/05/06 06:09:12;;;;;;;30.98;8.50;;;5.40;99.90;;;;;;5045606;28;20132;-73
2021/05/06 06:11:38;;;;;;;29.33;8.13;;;5.50;99.90;;;;;;5039700;28;20052;-73
2021/05/06 06:14:06;;;;;;;32.33;9.10;;;5.50;99.90;;;;;;5039681;28;20467;-73
2021/05/06 06:16:34;;;;;;;23.90;8.93;;;5.60;99.90;;;;;;5035497;28;20054;-73
2021/05/06 06:19:01;;;;;;;18.00;9.43;;;5.60;99.90;;;;;;5038131;28;20080;-74
2021/05/06 06:24:05;;;;;;;10.32;7.35;;;5.80;99.90;;;;;;5036117;28;20053;-73
2021/05/06 06:26:31;;;;;;;13.00;8.60;;;5.90;99.90;;;;;;5031617;28;20611;-73
2021/05/06 06:29:18;;;;;;;10.10;8.00;;;6.00;99.90;;;;;;5037832;28;20400;-73
2021/05/06 06:31:51;;;;;;;10.70;8.55;;;6.10;99.90;;;;;;5039650;28;20048;-73
2021/05/06 06:34:17;;;;;;;9.85;7.85;;;6.20;99.90;;;;;;5044176;28;20047;-73
2021/05/06 06:36:45;;;;;;;10.55;8.82;;;6.40;99.90;;;;;;5041007;28;20127;-73
2021/05/06 06:39:14;;;;;;;10.23;8.75;;;6.50;99.90;;;;;;5035092;28;20165;-73
2021/05/06 06:41:41;;;;;;;10.07;8.70;;;6.70;99.90;;;;;;5027723;28;20063;-74
2021/05/06 06:44:07;;;;;;;12.10;9.30;;;6.90;99.90;;;;;;5043556;28;20971;-73
2021/05/06 06:46:34;;;;;;;11.73;9.25;;;7.10;99.90;;;;;;5032225;28;20067;-74
2021/05/06 06:49:01;;;;;;;9.98;8.50;;;7.30;99.90;;;;;;5040578;28;20439;-74
2021/05/06 06:51:28;;;;;;;10.35;7.10;;;7.50;99.90;;;;;;5035723;28;20129;-73
2021/05/06 06:53:59;;;;;;;7.72;5.00;;;7.50;99.90;;;;;;5029601;28;21091;-73
2021/05/06 06:56:25;;;;;;;6.07;4.28;;;7.40;99.90;;;;;;5025917;28;20053;-73
2021/05/06 06:58:53;;;;;;;6.00;3.97;;;7.40;99.90;;;;;;5038766;28;20131;-74
2021/05/06 07:01:20;;;;;;;6.85;4.15;;;7.40;99.90;;;;;;5037988;28;20084;-73
2021/05/06 07:03:46;;;;;;;7.38;4.57;;;7.30;99.90;;;;;;5036575;28;20045;-73
2021/05/06 07:06:13;;;;;;;6.78;4.57;;;7.40;99.90;;;;;;5037805;28;20060;-73
2021/05/06 07:08:42;;;;;;;8.20;5.30;;;7.40;99.90;;;;;;5036615;28;20124;-73
2021/05/06 07:11:09;;;;;;;6.22;4.57;;;7.50;99.90;;;;;;5034969;28;20057;-73
2021/05/06 07:13:35;;;;;;;10.20;5.47;;;7.60;99.90;;;;;;5031202;28;20055;-73
2021/05/06 07:16:06;;;;;;;7.25;4.75;;;7.70;99.90;;;;;;5032405;28;20045;-73
2021/05/06 07:18:34;;;;;;;8.55;4.85;;;7.80;99.90;;;;;;5036544;28;20049;-73
2021/05/06 07:21:02;;;;;;;6.38;3.90;;;7.80;99.90;;;;;;5035509;28;20056;-73
2021/05/06 07:23:30;;;;;;;7.75;3.90;;;7.90;99.90;;;;;;5034536;28;20110;-73
2021/05/06 07:26:01;;;;;;;6.80;4.70;;;8.00;99.90;;;;;;5051490;28;20490;-73
2021/05/06 07:28:37;;;;;;;6.18;3.75;;;8.10;99.90;;;;;;5040306;28;20047;-73
2021/05/06 07:31:09;;;;;;;5.15;3.70;;;8.20;99.90;;;;;;5035915;28;20055;-73
2021/05/06 07:33:40;;;;;;;6.68;4.45;;;8.30;99.90;;;;;;5054879;28;20444;-73
2021/05/06 07:36:10;;;;;;;7.35;4.40;;;8.40;99.90;;;;;;5039294;28;20055;-73
2021/05/06 07:38:41;;;;;;;6.28;4.15;;;8.40;99.90;;;;;;5044019;28;20056;-73
2021/05/06 07:41:12;;;;;;;8.80;4.93;;;8.40;99.90;;;;;;5038002;28;20057;-72
2021/05/06 07:43:43;;;;;;;6.65;4.00;;;8.40;99.90;;;;;;5055023;28;20103;-73
2021/05/06 07:46:14;;;;;;;4.68;3.05;;;8.40;99.90;;;;;;5039345;28;20064;-73
2021/05/06 07:48:46;;;;;;;7.15;4.07;;;8.40;99.90;;;;;;5040754;28;20399;-73
2021/05/06 07:51:15;;;;;;;7.88;5.10;;;8.40;99.90;;;;;;5038506;28;20107;-73
2021/05/06 07:53:52;;;;;;;7.63;5.10;;;8.40;99.90;;;;;;5043245;28;20064;-73
2021/05/06 07:56:24;;;;;;;8.15;4.95;;;8.40;99.90;;;;;;5037741;28;20045;-73
2021/05/06 07:58:51;;;;;;;7.43;5.25;;;8.40;99.90;;;;;;5039379;28;20419;-73
2021/05/06 08:01:17;;;;;;;7.90;5.38;;;8.30;99.90;;;;;;5038217;28;20547;-73
2021/05/06 08:03:45;;;;;;;8.98;5.55;;;8.30;99.90;;;;;;5043339;28;20049;-73
2021/05/06 08:06:14;;;;;;;8.30;6.28;;;8.40;99.90;;;;;;5040408;28;20053;-73
2021/05/06 08:08:40;;;;;;;7.95;5.30;;;8.60;99.90;;;;;;5043106;28;20052;-73
2021/05/06 08:11:08;;;;;;;8.02;4.38;;;8.70;99.90;;;;;;5040892;28;20045;-73
2021/05/06 08:13:34;;;;;;;;;;;8.70;99.90;;;;;;5040413;28;20142;-73
2021/05/06 08:16:01;;;;;;;13.27;8.68;;;8.70;99.90;;;;;;5039544;28;19924;-73
2021/05/06 08:18:27;;;;;;;12.43;9.07;;;8.60;99.90;;;;;;5042569;28;20140;-73
2021/05/06 08:20:54;;;;;;;12.52;9.35;;;8.60;99.90;;;;;;5042192;28;20075;-73
2021/05/06 08:23:21;;;;;;;13.35;10.20;;;8.70;99.90;;;;;;5040782;28;20053;-73
2021/05/06 08:25:47;;;;;;;13.07;10.15;;;8.80;99.90;;;;;;5040271;28;20045;-73
2021/05/06 08:28:14;;;;;;;14.27;9.25;;;9.00;99.90;;;;;;5039884;28;20248;-73
2021/05/06 08:30:42;;;;;;;11.35;7.75;;;9.10;99.90;;;;;;5041018;28;20044;-73
2021/05/06 08:33:09;;;;;;;11.15;8.05;;;9.10;99.90;;;;;;5038215;28;20045;-73
2021/05/06 08:35:35;;;;;;;10.95;7.97;;;9.10;99.90;;;;;;5036506;28;20060;-74
2021/05/06 08:38:02;;;;;;;11.75;8.68;;;9.20;99.90;;;;;;5040681;28;20568;-73
2021/05/06 08:40:28;;;;;;;10.40;8.63;;;9.20;99.90;;;;;;5053054;28;20045;-73
2021/05/06 08:42:55;;;;;;;10.60;8.00;;;9.30;99.90;;;;;;5039859;28;20105;-73
2021/05/06 08:45:26;;;;;;;12.70;9.50;;;9.30;99.90;;;;;;5035678;28;20451;-73
2021/05/06 08:47:53;;;;;;;11.07;8.82;;;9.40;99.90;;;;;;5040017;28;20135;-72
2021/05/06 08:50:20;;;;;;;12.57;8.90;;;9.40;99.90;;;;;;5039410;28;20049;-73
2021/05/06 08:52:48;;;;;;;9.40;6.55;;;9.50;99.90;;;;;;5039898;28;20045;-73
2021/05/06 08:55:16;;;;;;;9.88;7.28;;;9.60;99.90;;;;;;5038364;28;20057;-73
2021/05/06 08:57:42;;;;;;;13.10;9.30;;;9.70;99.90;;;;;;5038957;28;20121;-72
2021/05/06 09:00:10;;;;;;;9.05;6.32;;;9.70;99.90;;;;;;5037215;28;20571;-73
2021/05/06 09:02:36;;;;;;;10.37;7.83;;;9.90;99.90;;;;;;5028237;28;20331;-73
2021/05/06 09:05:07;;;;;;;12.57;7.97;;;10.00;99.90;;;;;;5036599;28;20150;-73
2021/05/06 09:07:40;;;;;;;9.38;6.78;;;10.10;99.90;;;;;;5039349;28;20045;-73
2021/05/06 09:10:07;;;;;;;11.35;7.07;;;10.10;99.90;;;;;;5032894;28;20088;-73
2021/05/06 09:12:36;;;;;;;8.50;6.72;;;10.30;99.90;;;;;;5041690;28;20049;-72
2021/05/06 09:15:15;;;;;;;8.23;6.13;;;10.50;99.90;;;;;;5037769;28;20049;-73
2021/05/06 09:17:42;;;;;;;10.48;7.32;;;10.70;99.90;;;;;;5039798;28;20069;-73
2021/05/06 09:20:20;;;;;;;8.73;5.65;;;10.80;99.90;;;;;;5038824;28;20064;-73
2021/05/06 09:22:52;;;;;;;10.80;6.60;;;11.00;99.90;;;;;;5040670;28;20051;-73
2021/05/06 09:25:28;;;;;;;9.45;7.15;;;11.00;99.90;;;;;;5038078;28;20055;-73
2021/05/06 09:28:16;;;;;;;8.68;6.40;;;11.00;99.90;;;;;;5040250;28;20055;-73
2021/05/06 09:30:55;;;;;;;;;;;11.10;99.90;;;;;;5031575;28;20052;-73
2021/05/06 09:33:30;;;;;;;8.27;6.28;;;11.20;99.90;;;;;;5040989;28;19929;-73
2021/05/06 09:35:57;;;;;;;8.23;5.45;;;11.40;99.90;;;;;;5039294;28;20421;-73
2021/05/06 09:38:34;;;;;;;8.33;5.97;;;11.40;99.90;;;;;;5040364;28;20041;-73
2021/05/06 09:41:03;;;;;;;9.50;5.97;;;11.30;99.90;;;;;;5039617;28;20170;-73
2021/05/06 09:43:40;;;;;;;9.95;6.65;;;11.20;99.90;;;;;;5038554;28;20559;-73
2021/05/06 09:46:35;;;;;;;8.38;6.55;;;11.10;99.90;;;;;;5038620;28;20540;-72
2021/05/06 09:49:13;;;;;;;9.50;6.50;;;11.00;99.90;;;;;;5041294;28;20049;-73
2021/05/06 09:51:47;;;;;;;8.98;6.10;;;10.90;99.90;;;;;;5036484;28;20047;-73
2021/05/06 09:54:14;;;;;;;9.15;6.90;;;11.10;99.90;;;;;;5038501;28;20113;-73
2021/05/06 09:56:43;;;;;;;9.50;6.63;;;11.30;99.90;;;;;;5037269;28;20496;-72
2021/05/06 09:59:28;;;;;;;8.40;5.55;;;11.40;99.90;;;;;;5034889;28;20053;-73
2021/05/06 10:02:15;;;;;;;8.43;5.32;;;11.60;99.90;;;;;;5035369;28;20081;-73
2021/05/06 10:04:44;;;;;;;8.45;6.03;;;11.60;99.90;;;;;;5041816;28;20531;-72
2021/05/06 10:07:22;;;;;;;9.50;6.20;;;11.50;99.90;;;;;;5054014;28;20133;-72
2021/05/06 10:10:03;;;;;;;9.50;7.05;;;11.40;99.90;;;;;;5039654;28;20127;-73
2021/05/06 10:12:38;;;;;;;7.20;5.07;;;11.20;99.90;;;;;;5039685;28;20356;-73
2021/05/06 10:15:09;;;;;;;8.48;6.00;;;11.00;99.90;;;;;;5036718;28;20120;-73
2021/05/06 10:17:37;;;;;;;6.75;4.40;;;10.90;99.90;;;;;;5038262;28;20049;-73
2021/05/06 10:20:05;;;;;;;6.75;4.30;;;11.10;99.90;;;;;;5039463;28;20052;-72
2021/05/06 10:22:32;;;;;;;6.80;4.05;;;11.30;99.90;;;;;;5042475;28;20049;-72
2021/05/06 10:25:05;;;;;;;7.13;4.32;;;11.30;99.90;;;;;;5037677;28;20665;-73
2021/05/06 10:27:32;;;;;;;5.78;4.35;;;11.20;99.40;;;;;;5038859;28;20053;-73
2021/05/06 10:30:00;;;;;;;5.93;4.28;;;11.30;99.90;;;;;;5038137;28;20120;-73
2021/05/06 10:32:30;;;;;;;5.47;3.55;;;11.40;99.90;;;;;;5038288;28;20049;-73
2021/05/06 10:35:06;;;;;;;5.95;3.88;;;11.60;99.90;;;;;;5038107;28;20067;-73
2021/05/06 10:37:35;;;;;;;3.60;2.40;;;11.70;99.90;;;;;;5036964;28;20479;-72
2021/05/06 10:40:23;;;;;;;3.63;2.42;;;11.70;99.90;;;;;;5037639;28;20052;-74
2021/05/06 10:42:50;;;;;;;2.92;1.98;;;11.70;99.90;;;;;;5039445;28;20128;-73
2021/05/06 10:45:21;;;;;;;2.35;1.77;;;11.50;99.90;;;;;;5036757;28;20059;-73
2021/05/06 10:47:52;;;;;;;2.85;2.00;;;11.40;99.90;;;;;;5040377;28;20076;-73
2021/05/06 10:50:39;;;;;;;2.80;2.10;;;11.30;99.90;;;;;;5036204;28;20454;-73
2021/05/06 10:53:07;;;;;;;4.32;2.30;;;11.20;99.90;;;;;;5039284;28;20041;-73
2021/05/06 10:55:46;;;;;;;3.35;2.10;;;11.20;99.90;;;;;;5051088;28;20049;-73
2021/05/06 10:58:21;;;;;;;3.28;2.25;;;11.30;99.90;;;;;;5036036;28;20168;-73
2021/05/06 11:01:14;;;;;;;3.10;1.80;;;11.30;99.90;;;;;;5038352;28;20110;-73
2021/05/06 11:03:41;;;;;;;4.15;2.63;;;11.40;99.90;;;;;;5040575;28;20136;-73
2021/05/06 11:06:38;;;;;;;4.50;2.67;;;11.30;99.90;;;;;;5055124;28;20099;-73
2021/05/06 11:09:35;;;;;;;3.10;2.53;;;11.20;99.90;;;;;;5044047;28;20045;-73
2021/05/06 11:12:19;;;;;;;4.00;2.70;;;10.90;99.90;;;;;;5039493;28;20053;-73
2021/05/06 11:15:01;;;;;;;3.88;2.38;;;10.70;99.90;;;;;;5041410;28;20053;-73
2021/05/06 11:17:39;;;;;;;3.58;2.40;;;10.60;99.90;;;;;;5042813;28;20132;-71
2021/05/06 11:20:12;;;;;;;3.17;2.00;;;10.50;99.90;;;;;;5041151;28;20447;-73
2021/05/06 11:22:42;;;;;;;3.17;2.00;;;10.50;99.90;;;;;;5043081;28;20139;-73
2021/05/06 11:25:38;;;;;;;3.05;2.20;;;10.60;99.90;;;;;;5041193;28;20096;-73
2021/05/06 11:28:07;;;;;;;2.35;1.77;;;10.70;99.90;;;;;;5042002;28;20047;-73
2021/05/06 11:30:54;;;;;;;2.35;1.90;;;10.80;99.90;;;;;;5031942;28;20057;-73
2021/05/06 11:33:21;;;;;;;2.85;2.10;;;11.00;99.90;;;;;;5030233;28;20111;-73
2021/05/06 11:36:10;;;;;;;3.55;2.03;;;11.10;99.90;;;;;;5037938;28;20058;-73
2021/05/06 11:38:53;;;;;;;3.17;2.47;;;11.40;99.90;;;;;;5043095;28;20451;-73
2021/05/06 11:41:33;;;;;;;3.83;2.08;;;11.90;99.90;;;;;;5037992;28;20056;-73
2021/05/06 11:44:03;;;;;;;3.35;2.30;;;12.30;99.90;;;;;;5039488;28;20662;-73
2021/05/06 11:46:31;;;;;;;2.72;1.95;;;12.70;99.90;;;;;;5032177;28;20132;-73
2021/05/06 11:49:03;;;;;;;4.05;2.50;;;12.90;99.90;;;;;;5036502;28;20084;-73
2021/05/06 11:51:36;;;;;;;3.70;2.35;;;12.90;99.90;;;;;;5038821;28;20056;-74
2021/05/06 11:54:08;;;;;;;3.92;2.20;;;13.00;99.90;;;;;;5039764;28;20492;-73
2021/05/06 11:56:45;;;;;;;5.03;2.47;;;13.00;99.90;;;;;;5037255;28;20404;-73
2021/05/06 11:59:19;;;;;;;2.85;2.28;;;12.90;99.90;;;;;;5041269;28;20406;-73
2021/05/06 12:01:46;;;;;;;3.83;2.58;;;12.70;99.90;;;;;;5039693;28;20076;-73
2021/05/06 12:04:26;;;;;;;4.30;2.63;;;12.50;99.90;;;;;;5038289;28;20475;-73
2021/05/06 12:06:53;;;;;;;3.33;2.60;;;12.40;99.90;;;;;;5038062;28;20476;-73
2021/05/06 12:09:28;;;;;;;3.63;2.60;;;12.30;99.90;;;;;;5042422;28;20059;-73
2021/05/06 12:11:55;;;;;;;5.43;2.80;;;12.10;99.90;;;;;;5051325;28;20123;-73
2021/05/06 12:14:32;;;;;;;4.05;2.88;;;12.10;99.90;;;;;;5041015;28;20057;-73
2021/05/06 12:16:59;;;;;;;4.13;2.85;;;12.20;99.90;;;;;;5037268;28;20742;-73
2021/05/06 12:19:25;;;;;;;3.80;2.72;;;12.40;99.90;;;;;;5054254;28;20053;-73
2021/05/06 12:21:56;;;;;;;5.07;3.40;;;12.60;99.90;;;;;;5053584;28;20504;-73
2021/05/06 12:24:33;;;;;;;4.30;2.85;;;12.80;99.90;;;;;;5042265;28;20140;-74
2021/05/06 12:27:29;;;;;;;5.45;3.30;;;12.90;99.90;;;;;;5037216;28;20059;-73
2021/05/06 12:29:55;;;;;;;5.60;3.20;;;12.70;99.90;;;;;;5037885;28;20143;-74
2021/05/06 12:32:33;;;;;;;4.47;3.10;;;12.60;99.90;;;;;;5040918;28;20059;-74
2021/05/06 12:35:01;;;;;;;6.07;3.30;;;12.40;99.90;;;;;;5036061;28;20055;-73
2021/05/06 12:37:31;;;;;;;4.45;2.90;;;12.30;99.90;;;;;;5041116;28;20056;-73
2021/05/06 12:39:58;;;;;;;4.38;2.63;;;12.30;99.90;;;;;;5035420;28;20055;-74
2021/05/06 12:42:33;;;;;;;3.65;2.70;;;12.30;99.90;;;;;;5033134;28;20072;-73
2021/05/06 12:45:00;;;;;;;4.88;2.90;;;12.40;99.90;;;;;;5040360;28;20064;-74
2021/05/06 12:47:30;;;;;;;4.00;2.60;;;12.50;99.90;;;;;;5043810;28;20049;-73
2021/05/06 12:50:13;;;;;;;4.40;2.60;;;12.70;99.90;;;;;;5040443;28;20659;-73
2021/05/06 12:52:41;;;;;;;4.13;2.63;;;12.90;99.90;;;;;;5040018;28;20408;-74
2021/05/06 12:55:22;;;;;;;5.20;2.70;;;13.10;99.90;;;;;;5041401;28;20094;-74
2021/05/06 12:58:12;;;;;;;4.95;3.17;;;13.20;99.90;;;;;;5042186;28;20045;-74
2021/05/06 13:00:39;;;;;;;6.35;3.35;;;13.30;99.90;;;;;;5041488;28;23987;-73
2021/05/06 13:03:11;;;;;;;4.55;2.95;;;13.30;99.90;;;;;;5040893;28;20563;-73
2021/05/06 13:05:42;;;;;;;4.63;2.92;;;13.30;99.90;;;;;;5042678;28;20449;-74
2021/05/06 13:08:08;;;;;;;4.20;3.05;;;13.20;99.90;;;;;;5042837;28;20100;-73
2021/05/06 13:10:42;;;;;;;6.03;3.50;;;13.20;99.90;;;;;;5042016;28;20052;-74
2021/05/06 13:13:10;;;;;;;5.15;3.30;;;13.30;99.90;;;;;;5041758;28;20068;-74
2021/05/06 13:15:46;;;;;;;4.13;2.92;;;13.40;99.90;;;;;;5044538;28;20051;-73
2021/05/06 13:18:13;;;;;;;5.53;3.08;;;13.60;99.90;;;;;;5043003;28;20079;-74
2021/05/06 13:20:41;;;;;;;4.70;2.60;;;13.70;99.90;;;;;;5043752;28;20136;-73
2021/05/06 13:23:10;;;;;;;4.00;2.63;;;14.00;99.90;;;;;;5040092;28;20053;-73
2021/05/06 13:25:46;;;;;;;5.32;2.90;;;14.20;99.90;;;;;;5042136;28;20160;-74
2021/05/06 13:28:16;;;;;;;5.53;2.60;;;14.20;99.90;;;;;;5040405;28;20051;-73
2021/05/06 13:30:47;;;;;;;4.85;2.80;;;14.10;99.90;;;;;;5043051;28;20076;-73
2021/05/06 13:33:19;;;;;;;4.45;2.47;;;14.10;99.90;;;;;;5041776;28;20041;-74
2021/05/06 13:36:12;;;;;;;4.38;2.50;;;14.00;99.90;;;;;;5040795;28;20110;-73
2021/05/06 13:39:00;;;;;;;3.95;2.58;;;14.10;99.90;;;;;;5041531;28;20051;-74
2021/05/06 13:41:28;;;;;;;3.85;2.92;;;14.20;99.90;;;;;;5040760;28;20955;-73
2021/05/06 13:43:56;;;;;;;5.17;2.83;;;14.20;99.90;;;;;;5029319;28;20055;-74
2021/05/06 13:46:23;;;;;;;4.47;2.75;;;14.30;99.90;;;;;;5033790;28;20318;-73
2021/05/06 13:48:51;;;;;;;3.37;2.70;;;14.20;99.90;;;;;;5042850;28;20044;-74
2021/05/06 13:51:18;;;;;;;5.18;2.83;;;14.20;99.90;;;;;;5038536;28;20307;-74
2021/05/06 13:53:46;;;;;;;5.55;2.88;;;14.20;99.90;;;;;;5042072;28;20051;-73
2021/05/06 13:56:13;;;;;;;3.83;2.55;;;14.20;99.90;;;;;;5042267;28;20387;-73
2021/05/06 13:58:41;;;;;;;4.43;2.83;;;14.20;99.90;;;;;;5041372;28;20063;-73
2021/05/06 14:01:09;;;;;;;4.57;2.70;;;14.10;99.90;;;;;;5039387;28;20477;-71
2021/05/06 14:03:36;;;;;;;6.78;2.63;;;14.20;99.90;;;;;;5041869;28;20543;-71
2021/05/06 14:06:04;;;;;;;4.18;2.53;;;14.20;99.90;;;;;;5036426;28;20376;-71
2021/05/06 14:08:31;;;;;;;7.70;2.50;;;14.20;99.90;;;;;;5042158;28;20052;-71
2021/05/06 14:10:57;;;;;;;3.58;2.35;;;14.20;99.90;;;;;;5037755;28;20037;-71
2021/05/06 14:13:24;;;;;;;4.65;2.63;;;14.20;99.90;;;;;;5050758;28;20139;-71
2021/05/06 14:15:51;;;;;;;3.65;2.28;;;14.20;99.90;;;;;;5038904;28;20063;-71
2021/05/06 14:18:17;;;;;;;5.25;3.08;;;14.20;99.90;;;;;;5037745;28;20090;-71
2021/05/06 14:20:45;;;;;;;4.28;2.53;;;14.20;99.90;;;;;;5036837;28;20053;-70
2021/05/06 14:23:11;;;;;;;5.67;2.30;;;14.30;99.90;;;;;;5038439;28;20517;-71
2021/05/06 14:25:38;;;;;;;3.33;2.00;;;14.40;99.90;;;;;;5036334;28;20143;-71
2021/05/06 14:28:06;;;;;;;4.85;2.53;;;14.40;99.90;;;;;;5038452;28;20045;-71
2021/05/06 14:30:33;;;;;;;4.33;2.60;;;14.30;99.90;;;;;;5036627;28;20037;-71
2021/05/06 14:33:00;;;;;;;4.67;2.57;;;14.20;99.90;;;;;;5040248;28;20307;-71
2021/05/06 14:35:27;;;;;;;3.83;2.38;;;14.20;99.90;;;;;;5034853;28;20045;-71
2021/05/06 14:37:54;;;;;;;3.17;2.20;;;14.30;99.90;;;;;;5039493;28;20090;-71
2021/05/06 14:40:21;;;;;;;4.40;2.45;;;14.30;99.90;;;;;;5037623;28;20063;-71
2021/05/06 14:42:47;;;;;;;3.40;2.03;;;14.20;99.90;;;;;;5028759;28;20048;-71
2021/05/06 14:45:14;;;;;;;4.22;2.60;;;14.20;99.90;;;;;;5053053;28;20601;-71
2021/05/06 14:47:40;;;;;;;4.18;2.38;;;14.30;99.90;;;;;;5054265;28;20144;-71
2021/05/06 14:50:12;;;;;;;3.95;2.30;;;14.40;99.90;;;;;;5039527;28;20096;-71
2021/05/06 14:52:39;;;;;;;3.50;2.35;;;14.50;99.90;;;;;;5037398;28;20128;-71
2021/05/06 14:55:08;;;;;;;5.38;3.00;;;14.60;99.90;;;;;;5036865;28;20073;-71
2021/05/06 14:57:35;;;;;;;3.88;2.03;;;14.60;99.90;;;;;;5040063;28;20064;-71
2021/05/06 15:00:04;;;;;;;6.75;2.97;;;14.60;99.90;;;;;;5035395;28;20053;-71
2021/05/06 15:02:30;;;;;;;3.70;2.28;;;14.50;99.90;;;;;;5036007;28;20451;-71
2021/05/06 15:04:57;;;;;;;3.60;2.22;;;14.40;99.00;;;;;;5037603;28;20053;-71
2021/05/06 15:07:23;;;;;;;3.90;2.38;;;14.20;97.70;;;;;;5052854;28;20485;-71
2021/05/06 15:09:51;;;;;;;4.22;2.58;;;14.10;98.50;;;;;;5034838;28;20439;-71
2021/05/06 15:12:17;;;;;;;3.75;2.70;;;14.00;97.90;;;;;;5037069;28;20045;-71
2021/05/06 15:14:43;;;;;;;3.38;2.40;;;13.90;98.30;;;;;;5035513;28;20045;-71
2021/05/06 15:17:09;;;;;;;5.00;2.40;;;13.90;98.30;;;;;;5037491;28;20128;-71
2021/05/06 15:19:36;;;;;;;3.90;2.30;;;13.90;98.80;;;;;;5038576;28;20056;-71
2021/05/06 15:22:02;;;;;;;3.90;2.30;;;14.00;98.80;;;;;;5039419;28;20052;-71
2021/05/06 15:24:42;;;;;;;6.95;4.65;;;14.10;99.30;;;;;;5037623;28;20052;-71
2021/05/06 15:27:09;;;;;;;5.90;3.28;;;14.10;99.00;;;;;;5040829;28;20051;-71
2021/05/06 15:29:35;;;;;;;4.22;2.47;;;14.30;99.90;;;;;;5038093;28;20037;-71
2021/05/06 15:32:02;;;;;;;4.65;2.80;;;14.40;99.90;;;;;;5036869;28;20574;-71
2021/05/06 15:34:28;;;;;;;4.13;2.90;;;14.50;99.90;;;;;;5037723;28;20045;-71
2021/05/06 15:37:03;;;;;;;3.80;2.45;;;14.60;99.90;;;;;;5037708;28;20156;-71
2021/05/06 15:39:29;;;;;;;5.45;2.33;;;14.60;99.90;;;;;;5039132;28;20144;-71
2021/05/06 15:41:55;;;;;;;4.60;2.55;;;14.60;99.90;;;;;;5039518;28;20049;-71
2021/05/06 15:44:21;;;;;;;3.70;2.47;;;14.60;99.90;;;;;;5038003;28;20129;-71
2021/05/06 15:46:48;;;;;;;3.75;2.53;;;14.60;99.90;;;;;;5036099;28;20037;-71
2021/05/06 15:49:14;;;;;;;4.80;2.60;;;14.50;99.90;;;;;;5040147;28;20041;-71
2021/05/06 15:51:40;;;;;;;4.22;2.50;;;14.40;99.60;;;;;;5041874;28;20049;-71
2021/05/06 15:54:15;;;;;;;3.85;2.42;;;14.20;99.20;;;;;;5044923;28;20575;-71
2021/05/06 15:56:42;;;;;;;3.72;2.38;;;14.00;98.40;;;;;;5039409;28;20562;-71
2021/05/06 15:59:08;;;;;;;3.45;2.20;;;13.80;98.40;;;;;;5040880;28;20056;-71
2021/05/06 16:01:34;;;;;;;3.35;2.22;;;13.60;98.30;;;;;;5042501;28;20144;-71
2021/05/06 16:04:05;;;;;;;2.90;2.20;;;13.40;97.70;;;;;;5042130;28;20057;-71
2021/05/06 16:06:31;;;;;;;5.05;2.60;;;13.20;97.10;;;;;;5039481;28;20407;-71
2021/05/06 16:08:57;;;;;;;4.15;2.30;;;13.00;97.10;;;;;;5040659;28;20045;-71
2021/05/06 16:11:24;;;;;;;6.50;3.72;;;12.80;96.40;;;;;;5040271;28;20550;-70
2021/05/06 16:13:51;;;;;;;5.78;3.67;;;12.50;95.70;;;;;;5040783;28;20057;-70
2021/05/06 16:16:18;;;;;;;4.70;3.40;;;12.10;95.00;;;;;;5037619;28;20437;-71
2021/05/06 16:18:46;;;;;;;5.77;3.70;;;11.70;94.90;;;;;;5042081;28;20075;-70